createdAt,value
2022-12-24T00:00:08.863Z,932.47
2022-12-24T00:01:08.913Z,932.41
2022-12-24T00:02:09.909Z,932.41
2022-12-24T00:03:10.896Z,932.42
2022-12-24T00:04:11.570Z,932.48
2022-12-24T00:05:12.298Z,932.52
2022-12-24T00:06:13.250Z,932.51
2022-12-24T00:07:14.251Z,932.43
2022-12-24T00:08:14.464Z,932.55
2022-12-24T00:09:14.706Z,932.57
2022-12-24T00:10:15.254Z,932.5
2022-12-24T00:11:16.196Z,932.74
2022-12-24T00:12:16.738Z,932.56
2022-12-24T00:13:17.705Z,932.67
2022-12-24T00:14:18.064Z,932.66
2022-12-24T00:15:19.005Z,932.34
2022-12-24T00:16:19.261Z,932.49
2022-12-24T00:17:19.491Z,932.47
2022-12-24T00:18:19.710Z,932.49
2022-12-24T00:19:19.959Z,932.58
2022-12-24T00:20:21.041Z,932.67
2022-12-24T00:21:22.001Z,932.48
2022-12-24T00:22:22.939Z,932.49
2022-12-24T00:23:23.871Z,932.51
2022-12-24T00:24:24.441Z,932.53
2022-12-24T00:25:25.418Z,932.53
2022-12-24T00:26:26.382Z,932.47
2022-12-24T00:27:27.318Z,932.47
2022-12-24T00:28:28.253Z,932.53
2022-12-24T00:29:29.215Z,932.52
2022-12-24T00:30:30.379Z,932.4
2022-12-24T00:31:31.178Z,932.35
2022-12-24T00:32:31.388Z,932.37
2022-12-24T00:33:31.637Z,932.4
2022-12-24T00:34:31.869Z,932.37
2022-12-24T00:35:32.835Z,932.32
2022-12-24T00:36:33.071Z,932.37
2022-12-24T00:37:33.760Z,932.4
2022-12-24T00:38:33.996Z,932.45
2022-12-24T00:39:34.516Z,932.47
2022-12-24T00:40:35.193Z,932.5
2022-12-24T00:41:36.147Z,932.44
2022-12-24T00:42:36.825Z,932.46
2022-12-24T00:43:37.744Z,932.47
2022-12-24T00:44:38.258Z,932.45
2022-12-24T00:45:38.513Z,932.5
2022-12-24T00:46:39.029Z,932.5
2022-12-24T00:47:39.195Z,932.55
2022-12-24T00:48:39.683Z,932.63
2022-12-24T00:49:39.882Z,932.67
2022-12-24T00:50:40.986Z,932.68
2022-12-24T00:51:41.490Z,932.67
2022-12-24T00:52:42.426Z,932.72
2022-12-24T00:53:42.729Z,932.72
2022-12-24T00:54:43.725Z,932.78
2022-12-24T00:55:44.022Z,932.8
2022-12-24T00:56:44.260Z,932.88
2022-12-24T00:57:44.774Z,932.9
2022-12-24T00:58:45.000Z,932.91
2022-12-24T00:59:45.638Z,932.94
2022-12-24T01:00:46.095Z,932.95
2022-12-24T01:01:46.396Z,932.97
2022-12-24T01:02:46.962Z,932.95
2022-12-24T01:03:47.456Z,933.04
2022-12-24T01:04:48.220Z,933.02
2022-12-24T01:05:48.509Z,933.01
2022-12-24T01:06:49.022Z,933.01
2022-12-24T01:07:49.255Z,933.02
2022-12-24T01:08:49.492Z,933.03
2022-12-24T01:09:50.424Z,933.08
2022-12-24T01:10:51.517Z,933.03
2022-12-24T01:11:51.740Z,933.06
2022-12-24T01:12:52.710Z,933.05
2022-12-24T01:13:52.904Z,933.03
2022-12-24T01:14:53.404Z,933.08
2022-12-24T01:15:54.119Z,933.12
2022-12-24T01:16:54.315Z,933.12
2022-12-24T01:17:54.670Z,933.13
2022-12-24T01:18:55.319Z,933.17
2022-12-24T01:19:55.579Z,933.11
2022-12-24T01:20:55.798Z,933.19
2022-12-24T01:21:56.749Z,933.19
2022-12-24T01:22:56.988Z,933.24
2022-12-24T01:23:57.209Z,933.24
2022-12-24T01:24:58.172Z,933.26
2022-12-24T01:25:59.159Z,933.29
2022-12-24T01:27:00.114Z,933.33
2022-12-24T01:28:01.053Z,933.3
2022-12-24T01:29:01.265Z,933.3
2022-12-24T01:30:02.232Z,933.31
2022-12-24T01:31:03.232Z,933.33
2022-12-24T01:32:04.179Z,933.33
2022-12-24T01:33:04.431Z,933.34
2022-12-24T01:34:04.683Z,933.35
2022-12-24T01:35:05.644Z,933.38
2022-12-24T01:36:05.937Z,933.42
2022-12-24T01:37:06.188Z,933.48
2022-12-24T01:38:06.406Z,933.52
2022-12-24T01:39:06.653Z,933.54
2022-12-24T01:40:07.597Z,933.55
2022-12-24T01:41:07.736Z,933.57
2022-12-24T01:42:08.001Z,933.56
2022-12-24T01:43:08.957Z,933.6
2022-12-24T01:44:09.945Z,933.65
2022-12-24T01:45:10.495Z,933.69
2022-12-24T01:46:10.720Z,933.62
2022-12-24T01:47:11.134Z,933.59
2022-12-24T01:48:11.798Z,933.6
2022-12-24T01:49:12.435Z,933.71
2022-12-24T01:50:13.174Z,933.71
2022-12-24T01:51:13.566Z,933.74
2022-12-24T01:52:13.783Z,933.74
2022-12-24T01:53:14.718Z,933.75
2022-12-24T01:54:14.947Z,933.81
2022-12-24T01:55:15.489Z,933.81
2022-12-24T01:56:16.164Z,933.87
2022-12-24T01:57:16.418Z,933.9
2022-12-24T01:58:16.823Z,933.89
2022-12-24T01:59:17.057Z,933.9
2022-12-24T02:00:17.996Z,933.93
2022-12-24T02:01:18.851Z,933.93
2022-12-24T02:02:19.147Z,934
2022-12-24T02:03:19.342Z,934.05
2022-12-24T02:04:19.993Z,934.05
2022-12-24T02:05:20.642Z,934
2022-12-24T02:06:20.909Z,933.97
2022-12-24T02:07:21.098Z,934.03
2022-12-24T02:08:21.344Z,934.03
2022-12-24T02:09:22.250Z,934.11
2022-12-24T02:10:23.203Z,934.12
2022-12-24T02:11:23.525Z,934.13
2022-12-24T02:12:24.457Z,934.19
2022-12-24T02:13:25.380Z,934.23
2022-12-24T02:14:26.022Z,934.24
2022-12-24T02:15:26.950Z,934.23
2022-12-24T02:16:27.314Z,934.28
2022-12-24T02:17:28.107Z,934.25
2022-12-24T02:18:29.059Z,934.2
2022-12-24T02:19:29.308Z,934.28
2022-12-24T02:20:30.283Z,934.12
2022-12-24T02:21:31.047Z,934.11
2022-12-24T02:22:31.577Z,934.12
2022-12-24T02:23:31.863Z,934.15
2022-12-24T02:24:32.154Z,934.17
2022-12-24T02:25:32.355Z,934.17
2022-12-24T02:26:33.358Z,934.2
2022-12-24T02:27:34.051Z,934.27
2022-12-24T02:28:34.570Z,934.24
2022-12-24T02:29:34.792Z,934.3
2022-12-24T02:30:35.454Z,934.21
2022-12-24T02:31:35.851Z,934.17
2022-12-24T02:32:36.485Z,934.14
2022-12-24T02:33:36.689Z,934.14
2022-12-24T02:34:37.322Z,934.15
2022-12-24T02:35:37.519Z,934.04
2022-12-24T02:36:38.112Z,933.94
2022-12-24T02:37:38.681Z,933.98
2022-12-24T02:38:38.908Z,934.03
2022-12-24T02:39:39.889Z,934.01
2022-12-24T02:40:40.543Z,933.96
2022-12-24T02:41:40.931Z,933.95
2022-12-24T02:42:41.150Z,933.95
2022-12-24T02:43:41.355Z,933.97
2022-12-24T02:44:42.008Z,934
2022-12-24T02:45:43.011Z,934.07
2022-12-24T02:46:43.554Z,933.97
2022-12-24T02:47:44.158Z,933.93
2022-12-24T02:48:45.109Z,933.97
2022-12-24T02:49:45.794Z,934.03
2022-12-24T02:50:46.061Z,934.01
2022-12-24T02:51:46.572Z,934.13
2022-12-24T02:52:46.809Z,934.15
2022-12-24T02:53:47.763Z,934.17
2022-12-24T02:54:48.712Z,934.16
2022-12-24T02:55:48.961Z,934.22
2022-12-24T02:56:49.229Z,934.26
2022-12-24T02:57:50.154Z,934.2
2022-12-24T02:58:51.090Z,934.19
2022-12-24T02:59:52.060Z,934.24
2022-12-24T03:00:53.095Z,934.17
2022-12-24T03:01:53.941Z,934.23
2022-12-24T03:02:54.923Z,934.28
2022-12-24T03:03:55.437Z,934.34
2022-12-24T03:04:55.939Z,934.34
2022-12-24T03:05:56.171Z,934.36
2022-12-24T03:06:56.425Z,934.32
2022-12-24T03:07:56.640Z,934.34
2022-12-24T03:08:57.583Z,934.27
2022-12-24T03:09:57.967Z,934.3
2022-12-24T03:10:58.247Z,934.29
2022-12-24T03:11:58.645Z,934.31
2022-12-24T03:12:58.865Z,934.27
2022-12-24T03:13:59.800Z,934.38
2022-12-24T03:15:00.769Z,934.41
2022-12-24T03:16:01.021Z,934.45
2022-12-24T03:17:01.275Z,934.38
2022-12-24T03:18:01.796Z,934.46
2022-12-24T03:19:02.339Z,934.4
2022-12-24T03:20:03.269Z,934.37
2022-12-24T03:21:03.772Z,934.38
2022-12-24T03:22:04.480Z,934.39
2022-12-24T03:23:04.687Z,934.42
2022-12-24T03:24:05.060Z,934.44
2022-12-24T03:25:05.718Z,934.43
2022-12-24T03:26:06.089Z,934.44
2022-12-24T03:27:06.517Z,934.45
2022-12-24T03:28:06.737Z,934.45
2022-12-24T03:29:07.386Z,934.47
2022-12-24T03:30:08.330Z,934.43
2022-12-24T03:31:08.885Z,934.42
2022-12-24T03:32:09.405Z,934.44
2022-12-24T03:33:09.605Z,934.4
2022-12-24T03:34:10.254Z,934.44
2022-12-24T03:35:11.211Z,934.35
2022-12-24T03:36:11.456Z,934.38
2022-12-24T03:37:12.178Z,934.32
2022-12-24T03:38:12.448Z,934.41
2022-12-24T03:39:12.825Z,934.3
2022-12-24T03:40:13.321Z,934.33
2022-12-24T03:41:13.805Z,934.43
2022-12-24T03:42:14.454Z,934.41
2022-12-24T03:43:14.668Z,934.43
2022-12-24T03:44:14.879Z,934.37
2022-12-24T03:45:15.527Z,934.29
2022-12-24T03:46:15.779Z,934.34
2022-12-24T03:47:16.735Z,934.35
2022-12-24T03:48:16.948Z,934.41
2022-12-24T03:49:17.984Z,934.43
2022-12-24T03:50:18.190Z,934.45
2022-12-24T03:51:18.425Z,934.51
2022-12-24T03:52:19.222Z,934.52
2022-12-24T03:53:19.752Z,934.59
2022-12-24T03:54:19.963Z,934.62
2022-12-24T03:55:20.629Z,934.6
2022-12-24T03:56:20.842Z,934.64
2022-12-24T03:57:21.151Z,934.65
2022-12-24T03:58:21.824Z,934.64
2022-12-24T03:59:22.202Z,934.65
2022-12-24T04:00:23.241Z,934.68
2022-12-24T04:01:24.336Z,934.73
2022-12-24T04:02:24.504Z,934.77
2022-12-24T04:03:25.381Z,934.77
2022-12-24T04:04:25.524Z,934.79
2022-12-24T04:05:26.057Z,934.81
2022-12-24T04:06:26.994Z,934.84
2022-12-24T04:07:27.286Z,934.84
2022-12-24T04:08:27.492Z,934.84
2022-12-24T04:09:28.420Z,934.83
2022-12-24T04:10:28.648Z,934.92
2022-12-24T04:11:29.154Z,934.96
2022-12-24T04:12:30.241Z,935
2022-12-24T04:13:30.582Z,935.08
2022-12-24T04:14:31.140Z,935.12
2022-12-24T04:15:31.377Z,934.94
2022-12-24T04:16:31.698Z,935.01
2022-12-24T04:17:32.430Z,935.2
2022-12-24T04:18:32.677Z,935.13
2022-12-24T04:19:33.324Z,935.17
2022-12-24T04:20:34.279Z,935.28
2022-12-24T04:21:34.803Z,935.19
2022-12-24T04:22:34.957Z,935.22
2022-12-24T04:23:35.188Z,935.28
2022-12-24T04:24:35.893Z,935.34
2022-12-24T04:25:36.132Z,935.18
2022-12-24T04:26:36.795Z,935.29
2022-12-24T04:27:37.773Z,935.45
2022-12-24T04:28:38.710Z,935.37
2022-12-24T04:29:39.668Z,935.5
2022-12-24T04:30:39.870Z,935.59
2022-12-24T04:31:40.296Z,935.58
2022-12-24T04:32:40.754Z,935.53
2022-12-24T04:33:41.248Z,935.59
2022-12-24T04:34:41.500Z,935.62
2022-12-24T04:35:42.443Z,935.72
2022-12-24T04:36:43.382Z,935.76
2022-12-24T04:37:43.950Z,935.77
2022-12-24T04:38:44.203Z,935.72
2022-12-24T04:39:44.901Z,935.77
2022-12-24T04:40:45.426Z,935.76
2022-12-24T04:41:45.675Z,935.67
2022-12-24T04:42:46.060Z,935.69
2022-12-24T04:43:47.002Z,935.61
2022-12-24T04:44:47.519Z,935.6
2022-12-24T04:45:48.457Z,935.62
2022-12-24T04:46:49.375Z,935.6
2022-12-24T04:47:50.343Z,935.66
2022-12-24T04:48:50.563Z,935.64
2022-12-24T04:49:51.203Z,935.69
2022-12-24T04:50:51.849Z,935.69
2022-12-24T04:51:52.099Z,935.62
2022-12-24T04:52:52.503Z,935.7
2022-12-24T04:53:53.190Z,935.63
2022-12-24T04:54:53.453Z,935.63
2022-12-24T04:55:54.131Z,935.68
2022-12-24T04:56:54.685Z,935.65
2022-12-24T04:57:55.229Z,935.66
2022-12-24T04:58:55.468Z,935.7
2022-12-24T04:59:55.691Z,935.74
2022-12-24T05:00:55.948Z,935.71
2022-12-24T05:01:56.288Z,935.68
2022-12-24T05:02:57.147Z,935.79
2022-12-24T05:03:57.860Z,935.76
2022-12-24T05:04:58.538Z,935.77
2022-12-24T05:06:01.483Z,935.83
2022-12-24T05:06:59.827Z,935.95
2022-12-24T05:08:00.535Z,935.7
2022-12-24T05:09:01.507Z,935.64
2022-12-24T05:10:02.056Z,935.7
2022-12-24T05:11:03.008Z,935.72
2022-12-24T05:12:03.649Z,935.71
2022-12-24T05:13:04.753Z,935.67
2022-12-24T05:14:04.960Z,935.72
2022-12-24T05:15:05.175Z,935.75
2022-12-24T05:16:05.392Z,935.79
2022-12-24T05:17:06.121Z,935.77
2022-12-24T05:18:07.088Z,935.74
2022-12-24T05:19:08.019Z,935.73
2022-12-24T05:20:08.713Z,935.86
2022-12-24T05:21:09.677Z,935.82
2022-12-24T05:22:10.329Z,935.76
2022-12-24T05:23:10.737Z,935.74
2022-12-24T05:24:11.224Z,935.75
2022-12-24T05:25:11.900Z,935.71
2022-12-24T05:26:12.556Z,935.8
2022-12-24T05:27:13.526Z,935.75
2022-12-24T05:28:14.586Z,935.86
2022-12-24T05:29:14.794Z,935.9
2022-12-24T05:30:15.315Z,935.86
2022-12-24T05:31:15.784Z,935.93
2022-12-24T05:32:16.576Z,935.9
2022-12-24T05:33:16.901Z,936.02
2022-12-24T05:34:17.421Z,935.99
2022-12-24T05:35:17.642Z,936.04
2022-12-24T05:36:18.196Z,936.12
2022-12-24T05:37:19.171Z,936.08
2022-12-24T05:38:20.164Z,936.21
2022-12-24T05:39:20.684Z,936.26
2022-12-24T05:40:21.660Z,936.26
2022-12-24T05:41:22.607Z,936.28
2022-12-24T05:42:23.147Z,936.3
2022-12-24T05:43:23.830Z,936.25
2022-12-24T05:44:24.326Z,936.25
2022-12-24T05:45:25.279Z,936.32
2022-12-24T05:46:25.823Z,936.28
2022-12-24T05:47:26.844Z,936.33
2022-12-24T05:48:27.669Z,936.4
2022-12-24T05:49:28.025Z,936.39
2022-12-24T05:50:28.973Z,936.39
2022-12-24T05:51:29.173Z,936.31
2022-12-24T05:52:29.469Z,936.29
2022-12-24T05:53:30.550Z,936.25
2022-12-24T05:54:31.546Z,936.33
2022-12-24T05:55:31.915Z,936.44
2022-12-24T05:56:32.848Z,936.43
2022-12-24T05:57:33.768Z,936.31
2022-12-24T05:58:34.032Z,936.31
2022-12-24T05:59:34.239Z,936.42
2022-12-24T06:00:34.476Z,936.31
2022-12-24T06:01:35.480Z,936.28
2022-12-24T06:02:35.943Z,936.35
2022-12-24T06:03:36.877Z,936.33
2022-12-24T06:04:37.179Z,936.31
2022-12-24T06:05:37.717Z,936.2
2022-12-24T06:06:38.671Z,936.21
2022-12-24T06:07:38.878Z,936.26
2022-12-24T06:08:39.490Z,936.17
2022-12-24T06:09:40.469Z,936.15
2022-12-24T06:10:41.113Z,936.32
2022-12-24T06:11:41.751Z,936.32
2022-12-24T06:12:42.113Z,936.45
2022-12-24T06:13:42.533Z,936.28
2022-12-24T06:14:43.498Z,936.32
2022-12-24T06:15:43.816Z,936.36
2022-12-24T06:16:44.471Z,936.39
2022-12-24T06:17:44.710Z,936.35
2022-12-24T06:18:45.231Z,936.41
2022-12-24T06:19:45.497Z,936.36
2022-12-24T06:20:46.447Z,936.31
2022-12-24T06:21:47.498Z,936.46
2022-12-24T06:22:47.747Z,936.44
2022-12-24T06:23:48.858Z,936.53
2022-12-24T06:24:49.771Z,936.54
2022-12-24T06:25:50.035Z,936.63
2022-12-24T06:26:50.720Z,936.62
2022-12-24T06:27:51.099Z,936.61
2022-12-24T06:28:52.090Z,936.66
2022-12-24T06:29:52.999Z,936.7
2022-12-24T06:30:57.197Z,936.63
2022-12-24T06:31:53.719Z,936.62
2022-12-24T06:32:54.295Z,936.72
2022-12-24T06:33:54.551Z,936.75
2022-12-24T06:34:54.528Z,936.71
2022-12-24T06:35:54.777Z,936.66
2022-12-24T06:36:54.901Z,936.62
2022-12-24T06:37:55.846Z,936.66
2022-12-24T06:38:56.170Z,936.7
2022-12-24T06:39:56.398Z,936.7
2022-12-24T06:40:57.053Z,936.66
2022-12-24T06:41:57.981Z,936.79
2022-12-24T06:42:58.901Z,936.83
2022-12-24T06:43:59.660Z,936.88
2022-12-24T06:45:05.731Z,936.92
2022-12-24T06:46:00.996Z,936.83
2022-12-24T06:47:02.101Z,936.87
2022-12-24T06:48:02.222Z,936.88
2022-12-24T06:49:02.963Z,936.98
2022-12-24T06:50:04.031Z,936.98
2022-12-24T06:51:04.967Z,937.06
2022-12-24T06:52:05.919Z,937.24
2022-12-24T06:53:06.146Z,937.1
2022-12-24T06:54:07.237Z,937.07
2022-12-24T06:55:08.200Z,937.04
2022-12-24T06:56:08.911Z,937.07
2022-12-24T06:57:09.430Z,937.14
2022-12-24T06:58:09.944Z,937.1
2022-12-24T06:59:10.494Z,937.24
2022-12-24T07:00:11.046Z,937.19
2022-12-24T07:01:12.283Z,937.16
2022-12-24T07:02:12.869Z,937.26
2022-12-24T07:03:13.641Z,937.24
2022-12-24T07:04:19.792Z,937.28
2022-12-24T07:05:14.645Z,937.26
2022-12-24T07:06:15.309Z,937.28
2022-12-24T07:07:15.563Z,937.31
2022-12-24T07:08:15.786Z,937.31
2022-12-24T07:09:16.755Z,937.24
2022-12-24T07:10:16.957Z,937.3
2022-12-24T07:11:17.624Z,937.19
2022-12-24T07:12:18.170Z,937.22
2022-12-24T07:13:19.122Z,937.19
2022-12-24T07:14:20.209Z,937.21
2022-12-24T07:15:21.283Z,937.17
2022-12-24T07:16:21.777Z,937.19
2022-12-24T07:17:22.576Z,937.34
2022-12-24T07:18:23.083Z,937.3
2022-12-24T07:19:23.349Z,937.34
2022-12-24T07:20:24.376Z,937.42
2022-12-24T07:21:25.115Z,937.43
2022-12-24T07:22:25.348Z,937.42
2022-12-24T07:23:25.606Z,937.58
2022-12-24T07:24:26.003Z,937.4
2022-12-24T07:25:26.808Z,937.34
2022-12-24T07:26:27.443Z,937.28
2022-12-24T07:27:28.417Z,937.27
2022-12-24T07:28:28.833Z,937.19
2022-12-24T07:29:29.444Z,937.33
2022-12-24T07:30:29.774Z,937.31
2022-12-24T07:31:29.822Z,937.29
2022-12-24T07:32:30.140Z,937.29
2022-12-24T07:33:31.099Z,937.34
2022-12-24T07:34:32.188Z,937.4
2022-12-24T07:35:33.270Z,937.39
2022-12-24T07:36:33.414Z,937.43
2022-12-24T07:37:34.338Z,937.38
2022-12-24T07:38:34.699Z,937.4
2022-12-24T07:39:35.102Z,937.35
2022-12-24T07:40:35.759Z,937.38
2022-12-24T07:41:41.453Z,937.35
2022-12-24T07:42:36.290Z,937.33
2022-12-24T07:43:37.204Z,937.35
2022-12-24T07:44:37.607Z,937.32
2022-12-24T07:45:38.528Z,937.29
2022-12-24T07:46:39.246Z,937.3
2022-12-24T07:47:39.361Z,937.32
2022-12-24T07:48:40.298Z,937.3
2022-12-24T07:49:40.833Z,937.27
2022-12-24T07:50:41.494Z,937.3
2022-12-24T07:51:41.727Z,937.25
2022-12-24T07:52:42.379Z,937.24
2022-12-24T07:53:43.019Z,937.28
2022-12-24T07:54:44.109Z,937.28
2022-12-24T07:55:45.040Z,937.54
2022-12-24T07:56:45.812Z,937.52
2022-12-24T07:57:46.444Z,937.48
2022-12-24T07:58:47.385Z,937.47
2022-12-24T07:59:48.039Z,937.3
2022-12-24T08:00:48.310Z,937.32
2022-12-24T08:01:49.025Z,937.37
2022-12-24T08:02:49.716Z,937.34
2022-12-24T08:03:50.694Z,937.43
2022-12-24T08:04:51.368Z,937.38
2022-12-24T08:05:51.576Z,937.38
2022-12-24T08:06:51.866Z,937.4
2022-12-24T08:07:52.804Z,937.3
2022-12-24T08:08:53.335Z,937.34
2022-12-24T08:09:53.884Z,937.27
2022-12-24T08:10:54.838Z,937.14
2022-12-24T08:11:55.022Z,937.22
2022-12-24T08:12:55.949Z,937.19
2022-12-24T08:13:56.182Z,937.4
2022-12-24T08:14:56.526Z,937.3
2022-12-24T08:15:57.523Z,937.3
2022-12-24T08:16:58.122Z,937.21
2022-12-24T08:17:58.661Z,937.24
2022-12-24T08:18:58.910Z,937.42
2022-12-24T08:19:59.858Z,937.43
2022-12-24T08:21:00.139Z,937.37
2022-12-24T08:22:01.134Z,937.63
2022-12-24T08:23:02.078Z,937.56
2022-12-24T08:24:02.636Z,937.47
2022-12-24T08:25:03.022Z,937.56
2022-12-24T08:26:03.258Z,937.73
2022-12-24T08:27:04.198Z,937.58
2022-12-24T08:28:04.693Z,937.61
2022-12-24T08:29:05.650Z,937.65
2022-12-24T08:30:06.200Z,937.77
2022-12-24T08:31:06.785Z,937.69
2022-12-24T08:32:07.727Z,937.82
2022-12-24T08:33:08.127Z,937.8
2022-12-24T08:34:09.056Z,937.72
2022-12-24T08:35:09.378Z,937.8
2022-12-24T08:36:09.910Z,937.84
2022-12-24T08:37:10.123Z,937.75
2022-12-24T08:38:11.042Z,937.8
2022-12-24T08:39:11.991Z,937.84
2022-12-24T08:40:12.965Z,937.9
2022-12-24T08:41:13.666Z,937.92
2022-12-24T08:42:14.259Z,937.86
2022-12-24T08:43:14.499Z,937.87
2022-12-24T08:44:14.761Z,937.88
2022-12-24T08:45:15.567Z,937.95
2022-12-24T08:46:16.345Z,937.99
2022-12-24T08:47:17.179Z,937.94
2022-12-24T08:48:17.418Z,938.02
2022-12-24T08:49:17.595Z,937.95
2022-12-24T08:50:17.844Z,937.93
2022-12-24T08:51:18.768Z,937.93
2022-12-24T08:52:19.333Z,938.06
2022-12-24T08:53:19.544Z,938.04
2022-12-24T08:54:20.067Z,938.07
2022-12-24T08:55:20.395Z,938.11
2022-12-24T08:56:20.905Z,938.14
2022-12-24T08:57:21.277Z,938.1
2022-12-24T08:58:21.772Z,938.15
2022-12-24T08:59:21.980Z,938.2
2022-12-24T09:00:22.562Z,938.22
2022-12-24T09:01:23.004Z,938.26
2022-12-24T09:02:24.033Z,938.17
2022-12-24T09:03:27.652Z,938.32
2022-12-24T09:04:24.847Z,938.23
2022-12-24T09:05:25.223Z,938.22
2022-12-24T09:06:25.881Z,938.27
2022-12-24T09:07:26.305Z,938.34
2022-12-24T09:08:26.979Z,938.31
2022-12-24T09:09:30.374Z,938.25
2022-12-24T09:10:28.322Z,938.29
2022-12-24T09:11:28.548Z,938.36
2022-12-24T09:12:29.194Z,938.29
2022-12-24T09:13:29.734Z,938.27
2022-12-24T09:14:29.959Z,938.22
2022-12-24T09:15:31.053Z,938.25
2022-12-24T09:16:31.623Z,938.26
2022-12-24T09:17:32.160Z,938.27
2022-12-24T09:18:32.452Z,938.29
2022-12-24T09:19:32.855Z,938.35
2022-12-24T09:20:33.560Z,938.32
2022-12-24T09:21:33.960Z,938.32
2022-12-24T09:22:34.899Z,938.37
2022-12-24T09:23:35.288Z,938.37
2022-12-24T09:24:35.932Z,938.35
2022-12-24T09:25:36.336Z,938.34
2022-12-24T09:26:36.557Z,938.34
2022-12-24T09:27:37.311Z,938.4
2022-12-24T09:28:37.580Z,938.42
2022-12-24T09:29:38.517Z,938.38
2022-12-24T09:30:38.855Z,938.44
2022-12-24T09:31:39.105Z,938.43
2022-12-24T09:32:39.588Z,938.33
2022-12-24T09:33:40.225Z,938.41
2022-12-24T09:34:41.154Z,938.39
2022-12-24T09:35:41.319Z,938.42
2022-12-24T09:36:41.545Z,938.41
2022-12-24T09:37:42.547Z,938.41
2022-12-24T09:38:43.395Z,938.37
2022-12-24T09:39:44.070Z,938.33
2022-12-24T09:40:44.341Z,938.43
2022-12-24T09:41:45.382Z,938.43
2022-12-24T09:42:45.595Z,938.4
2022-12-24T09:43:46.259Z,938.38
2022-12-24T09:44:46.482Z,938.35
2022-12-24T09:45:47.001Z,938.49
2022-12-24T09:46:47.213Z,938.38
2022-12-24T09:47:48.209Z,938.36
2022-12-24T09:48:48.846Z,938.33
2022-12-24T09:49:49.217Z,938.47
2022-12-24T09:50:50.175Z,938.43
2022-12-24T09:51:50.820Z,938.39
2022-12-24T09:52:51.080Z,938.42
2022-12-24T09:53:51.992Z,938.35
2022-12-24T09:54:52.225Z,938.31
2022-12-24T09:55:52.987Z,938.36
2022-12-24T09:56:53.250Z,938.38
2022-12-24T09:57:53.618Z,938.39
2022-12-24T09:58:53.871Z,938.36
2022-12-24T09:59:54.104Z,938.43
2022-12-24T10:00:54.734Z,938.36
2022-12-24T10:01:55.646Z,938.38
2022-12-24T10:02:56.548Z,938.42
2022-12-24T10:03:56.968Z,938.41
2022-12-24T10:04:57.917Z,938.42
2022-12-24T10:05:58.718Z,938.37
2022-12-24T10:06:59.688Z,938.35
2022-12-24T10:08:00.382Z,938.31
2022-12-24T10:09:00.605Z,938.35
2022-12-24T10:10:00.842Z,938.4
2022-12-24T10:11:01.105Z,938.37
2022-12-24T10:12:01.771Z,938.4
2022-12-24T10:13:02.728Z,938.47
2022-12-24T10:14:03.664Z,938.43
2022-12-24T10:15:04.200Z,938.45
2022-12-24T10:16:04.569Z,938.37
2022-12-24T10:17:04.820Z,938.35
2022-12-24T10:18:05.780Z,938.33
2022-12-24T10:19:06.040Z,938.33
2022-12-24T10:20:06.282Z,938.42
2022-12-24T10:21:07.232Z,938.43
2022-12-24T10:22:07.458Z,938.44
2022-12-24T10:23:08.140Z,938.34
2022-12-24T10:24:09.116Z,938.31
2022-12-24T10:25:09.775Z,938.39
2022-12-24T10:26:10.440Z,938.33
2022-12-24T10:27:11.423Z,938.23
2022-12-24T10:28:12.065Z,938.24
2022-12-24T10:29:13.002Z,938.24
2022-12-24T10:30:17.106Z,938.21
2022-12-24T10:31:14.265Z,938.29
2022-12-24T10:32:14.693Z,938.26
2022-12-24T10:33:15.615Z,938.32
2022-12-24T10:34:16.251Z,938.38
2022-12-24T10:35:16.894Z,938.33
2022-12-24T10:36:17.944Z,938.32
2022-12-24T10:37:18.169Z,938.37
2022-12-24T10:38:18.374Z,938.35
2022-12-24T10:39:18.974Z,938.34
2022-12-24T10:40:19.923Z,938.29
2022-12-24T10:41:20.495Z,938.27
2022-12-24T10:42:21.439Z,938.31
2022-12-24T10:43:22.390Z,938.34
2022-12-24T10:44:22.635Z,938.37
2022-12-24T10:45:23.237Z,938.32
2022-12-24T10:46:23.955Z,938.34
2022-12-24T10:47:24.309Z,938.21
2022-12-24T10:48:24.972Z,938.18
2022-12-24T10:49:25.332Z,938.19
2022-12-24T10:50:26.273Z,938.14
2022-12-24T10:51:26.500Z,938.14
2022-12-24T10:52:26.730Z,938.13
2022-12-24T10:53:27.699Z,938.15
2022-12-24T10:54:28.544Z,938.1
2022-12-24T10:55:29.431Z,938.16
2022-12-24T10:56:30.494Z,938.16
2022-12-24T10:57:31.423Z,938.16
2022-12-24T10:58:32.352Z,938.2
2022-12-24T10:59:32.867Z,938.25
2022-12-24T11:00:36.405Z,938.27
2022-12-24T11:01:34.100Z,938.15
2022-12-24T11:02:34.894Z,938.18
2022-12-24T11:03:35.851Z,938.17
2022-12-24T11:04:36.467Z,938.19
2022-12-24T11:05:36.686Z,938.21
2022-12-24T11:06:37.335Z,938.24
2022-12-24T11:07:37.846Z,938.29
2022-12-24T11:08:38.126Z,938.23
2022-12-24T11:09:38.846Z,938.24
2022-12-24T11:10:39.510Z,938.27
2022-12-24T11:11:40.070Z,938.28
2022-12-24T11:12:41.007Z,938.35
2022-12-24T11:13:48.479Z,938.35
2022-12-24T11:14:49.400Z,938.37
2022-12-24T11:15:50.363Z,938.26
2022-12-24T11:16:51.042Z,938.3
2022-12-24T11:17:51.336Z,938.3
2022-12-24T11:18:52.471Z,938.31
2022-12-24T11:19:52.569Z,938.3
2022-12-24T11:20:52.855Z,938.3
2022-12-24T11:21:53.398Z,938.25
2022-12-24T11:22:53.975Z,938.23
2022-12-24T11:23:54.215Z,938.21
2022-12-24T11:24:55.217Z,938.27
2022-12-24T11:25:56.179Z,938.3
2022-12-24T11:26:57.289Z,938.26
2022-12-24T11:27:57.779Z,938.27
2022-12-24T11:28:57.980Z,938.3
2022-12-24T11:30:00.169Z,938.22
2022-12-24T11:30:58.729Z,938.23
2022-12-24T11:31:59.550Z,938.21
2022-12-24T11:32:59.799Z,938.21
2022-12-24T11:34:00.057Z,938.25
2022-12-24T11:35:01.024Z,938.22
2022-12-24T11:36:02.115Z,938.24
2022-12-24T11:37:03.193Z,938.15
2022-12-24T11:38:03.786Z,938.11
2022-12-24T11:39:04.281Z,938.17
2022-12-24T11:40:05.214Z,938.19
2022-12-24T11:41:06.142Z,938.16
2022-12-24T11:42:06.907Z,938.15
2022-12-24T11:43:14.437Z,938.15
2022-12-24T11:44:08.040Z,938.12
2022-12-24T11:45:08.961Z,938.09
2022-12-24T11:46:09.248Z,938.12
2022-12-24T11:47:09.588Z,938.07
2022-12-24T11:48:09.843Z,938.03
2022-12-24T11:49:10.478Z,937.96
2022-12-24T11:50:18.352Z,937.98
2022-12-24T11:51:11.788Z,937.97
2022-12-24T11:52:12.550Z,938.04
2022-12-24T11:53:13.064Z,938.05
2022-12-24T11:54:13.325Z,938.05
2022-12-24T11:55:16.133Z,938.07
2022-12-24T11:56:14.535Z,938.12
2022-12-24T11:57:15.023Z,938.03
2022-12-24T11:58:15.236Z,938.06
2022-12-24T11:59:15.493Z,938.07
2022-12-24T12:00:15.717Z,938.05
2022-12-24T12:01:16.272Z,938.05
2022-12-24T12:02:16.872Z,938.11
2022-12-24T12:03:17.372Z,938.13
2022-12-24T12:04:18.068Z,938.1
2022-12-24T12:05:19.112Z,938.18
2022-12-24T12:06:19.350Z,938.17
2022-12-24T12:07:20.077Z,938.16
2022-12-24T12:08:20.736Z,938.17
2022-12-24T12:09:20.956Z,938.22
2022-12-24T12:10:21.457Z,938.19
2022-12-24T12:11:21.969Z,938.19
2022-12-24T12:12:22.252Z,938.17
2022-12-24T12:13:22.727Z,938.17
2022-12-24T12:14:22.987Z,938.18
2022-12-24T12:15:23.480Z,938.18
2022-12-24T12:16:24.309Z,938.2
2022-12-24T12:17:24.736Z,938.26
2022-12-24T12:18:24.973Z,938.22
2022-12-24T12:19:25.171Z,938.26
2022-12-24T12:20:25.843Z,938.26
2022-12-24T12:21:26.343Z,938.33
2022-12-24T12:22:26.682Z,938.3
2022-12-24T12:23:27.333Z,938.29
2022-12-24T12:24:31.988Z,938.29
2022-12-24T12:25:29.352Z,938.34
2022-12-24T12:26:30.290Z,938.32
2022-12-24T12:27:30.859Z,938.32
2022-12-24T12:28:31.515Z,938.33
2022-12-24T12:29:31.877Z,938.33
2022-12-24T12:30:32.087Z,938.33
2022-12-24T12:31:33.022Z,938.29
2022-12-24T12:32:33.674Z,938.34
2022-12-24T12:33:34.241Z,938.3
2022-12-24T12:34:35.173Z,938.25
2022-12-24T12:35:35.429Z,938.26
2022-12-24T12:36:36.369Z,938.25
2022-12-24T12:37:37.175Z,938.31
2022-12-24T12:38:37.525Z,938.26